Time;durP1;ratioP1;P1;durP2;ratioP2;P2;SDS_P1;SDS_P2;PMS_P1;PMS_P2;Temp;Humidity;BMP_temperature;BMP_pressure;BME280_temperature;BME280_humidity;BME280_pressure;Samples;Min_cycle;Max_cycle;Signal;HPM_P1;HPM_P2
2021/06/23 00:01:31;;;;;;;16.63;13.63;;;14.20;85.70;;;;;;5093682;28;20069;-47
2021/06/23 00:03:56;;;;;;;17.55;13.48;;;14.20;85.60;;;;;;5093395;28;20032;-47
2021/06/23 00:06:22;;;;;;;18.15;13.45;;;14.10;85.80;;;;;;5093516;28;20413;-47
2021/06/23 00:08:47;;;;;;;15.85;12.18;;;14.10;85.60;;;;;;5093356;28;20472;-47
2021/06/23 00:11:13;;;;;;;23.67;15.18;;;14.00;85.30;;;;;;5093727;28;20383;-48
2021/06/23 00:13:39;;;;;;;19.50;13.73;;;14.00;85.70;;;;;;5095996;28;20021;-48
2021/06/23 00:16:06;;;;;;;17.67;12.07;;;14.00;85.80;;;;;;5079446;28;20115;-50
2021/06/23 00:18:32;;;;;;;18.00;11.75;;;14.00;85.60;;;;;;5097834;28;20048;-49
2021/06/23 00:20:57;;;;;;;19.60;12.85;;;13.80;85.60;;;;;;5097660;28;20483;-47
2021/06/23 00:23:23;;;;;;;17.00;12.95;;;13.90;85.90;;;;;;5097768;28;20356;-47
2021/06/23 00:25:49;;;;;;;16.23;11.23;;;13.90;86.00;;;;;;5098088;28;20024;-47
2021/06/23 00:28:15;;;;;;;20.20;11.93;;;14.10;85.10;;;;;;5098072;28;20036;-49
2021/06/23 00:30:41;;;;;;;15.18;10.10;;;14.00;85.10;;;;;;5097697;28;20085;-47
2021/06/23 00:33:12;;;;;;;20.50;11.50;;;14.00;84.80;;;;;;5097130;28;20083;-48
2021/06/23 00:35:38;;;;;;;18.48;11.85;;;14.10;84.60;;;;;;5079313;28;20028;-50
2021/06/23 00:38:05;;;;;;;22.80;12.15;;;14.10;84.40;;;;;;5097581;28;20069;-48
2021/06/23 00:40:31;;;;;;;23.67;12.90;;;14.00;84.50;;;;;;5062453;28;20020;-47
2021/06/23 00:42:57;;;;;;;17.92;10.93;;;14.00;85.00;;;;;;5079096;28;20406;-48
2021/06/23 00:45:23;;;;;;;26.10;11.27;;;14.00;85.20;;;;;;5097155;28;20020;-47
2021/06/23 00:47:52;;;;;;;22.25;12.90;;;14.10;85.00;;;;;;5079390;28;20020;-46
2021/06/23 00:50:19;;;;;;;18.33;12.95;;;14.00;85.00;;;;;;5097341;28;20034;-48
2021/06/23 00:52:45;;;;;;;13.57;10.48;;;13.90;85.20;;;;;;5096902;28;20475;-46
2021/06/23 00:55:20;;;;;;;20.85;10.55;;;13.90;85.30;;;;;;5097240;28;20104;-47
2021/06/23 00:57:46;;;;;;;17.90;11.45;;;14.00;85.00;;;;;;5096806;28;20023;-48
2021/06/23 01:00:12;;;;;;;27.15;11.75;;;14.00;85.00;;;;;;5096744;28;20483;-48
2021/06/23 01:02:39;;;;;;;19.92;14.32;;;13.80;85.50;;;;;;5097039;28;20067;-47
2021/06/23 01:05:05;;;;;;;18.05;10.27;;;13.80;85.50;;;;;;5097076;28;20375;-47
2021/06/23 01:07:31;;;;;;;21.90;11.48;;;13.90;85.10;;;;;;5096663;28;20032;-47
2021/06/23 01:09:57;;;;;;;17.42;11.07;;;13.90;85.20;;;;;;5096575;28;20429;-48
2021/06/23 01:12:22;;;;;;;17.23;10.35;;;13.90;85.40;;;;;;5096838;28;20029;-49
2021/06/23 01:14:52;;;;;;;19.75;11.43;;;13.90;85.20;;;;;;5096424;28;20024;-47
2021/06/23 01:17:20;;;;;;;15.43;10.05;;;13.90;85.20;;;;;;5096431;28;20054;-47
2021/06/23 01:19:46;;;;;;;20.25;11.65;;;13.90;84.70;;;;;;5097399;28;20028;-47
2021/06/23 01:22:18;;;;;;;24.92;11.38;;;13.90;84.50;;;;;;5096623;28;20027;-48
2021/06/23 01:25:04;;;;;;;16.33;9.73;;;13.90;84.40;;;;;;5096293;28;20016;-48
2021/06/23 01:27:29;;;;;;;15.00;10.00;;;14.00;84.60;;;;;;5096602;28;20096;-51
2021/06/23 01:29:56;;;;;;;17.10;9.85;;;13.80;84.70;;;;;;5096524;28;20056;-48
2021/06/23 01:32:22;;;;;;;17.17;10.38;;;13.80;84.80;;;;;;5096151;28;20047;-50
2021/06/23 01:34:47;;;;;;;21.80;9.82;;;13.80;84.90;;;;;;5077845;28;20032;-48
2021/06/23 01:37:13;;;;;;;19.65;10.93;;;13.80;84.20;;;;;;5077950;28;20016;-47
2021/06/23 01:39:38;;;;;;;24.98;10.75;;;13.80;84.10;;;;;;5096604;28;20020;-47
2021/06/23 01:42:05;;;;;;;15.55;10.15;;;13.80;84.40;;;;;;5096294;28;20494;-47
2021/06/23 01:44:30;;;;;;;13.82;9.82;;;13.80;84.60;;;;;;5077827;28;20028;-50
2021/06/23 01:46:56;;;;;;;24.00;11.15;;;13.90;84.50;;;;;;5077679;28;20032;-51
2021/06/23 01:49:25;;;;;;;24.58;11.80;;;13.80;84.60;;;;;;5095985;28;20039;-51
2021/06/23 01:51:51;;;;;;;21.10;10.85;;;13.80;84.90;;;;;;5095773;28;20054;-51
2021/06/23 01:54:16;;;;;;;18.80;9.30;;;13.80;84.60;;;;;;5096205;28;20020;-48
2021/06/23 01:56:42;;;;;;;20.75;12.13;;;13.80;84.60;;;;;;5095712;28;20085;-47
2021/06/23 01:59:08;;;;;;;16.48;10.00;;;13.70;84.90;;;;;;5095937;28;20028;-48
2021/06/23 02:02:06;;;;;;;26.55;11.68;;;13.80;84.70;;;;;;5095623;28;20020;-48
2021/06/23 02:04:37;;;;;;;17.30;10.52;;;13.80;84.40;;;;;;5095862;28;20487;-47
2021/06/23 02:07:13;;;;;;;25.42;11.80;;;13.70;84.70;;;;;;5095503;28;20060;-47
2021/06/23 02:09:56;;;;;;;23.17;11.35;;;13.80;84.80;;;;;;5095910;28;20039;-52
2021/06/23 02:12:24;;;;;;;13.63;9.93;;;13.70;85.00;;;;;;5095729;28;20031;-47
2021/06/23 02:15:01;;;;;;;17.05;9.45;;;13.70;85.10;;;;;;5095295;28;20032;-52
2021/06/23 02:17:29;;;;;;;17.77;9.95;;;13.80;84.50;;;;;;5095608;28;20070;-49
2021/06/23 02:19:55;;;;;;;18.63;9.88;;;13.80;84.60;;;;;;5095284;28;20024;-47
2021/06/23 02:22:24;;;;;;;21.65;11.02;;;13.70;84.70;;;;;;5095376;28;20034;-48
2021/06/23 02:24:55;;;;;;;22.45;10.77;;;13.80;84.70;;;;;;5095182;28;20103;-47
2021/06/23 02:27:22;;;;;;;16.27;9.65;;;13.70;84.70;;;;;;5095658;28;20016;-47
2021/06/23 02:29:49;;;;;;;17.42;9.82;;;13.70;84.80;;;;;;5095278;28;20036;-47
2021/06/23 02:32:22;;;;;;;15.05;10.60;;;13.60;84.60;;;;;;5094806;28;20506;-48
2021/06/23 02:34:52;;;;;;;19.10;9.88;;;13.60;84.80;;;;;;5095206;28;20036;-47
2021/06/23 02:37:18;;;;;;;23.02;9.60;;;13.70;84.40;;;;;;5094721;28;20055;-50
2021/06/23 02:39:44;;;;;;;17.50;10.32;;;13.70;84.30;;;;;;5094819;28;20112;-47
2021/06/23 02:42:11;;;;;;;16.00;9.63;;;13.60;84.50;;;;;;5094843;28;20020;-48
2021/06/23 02:44:37;;;;;;;13.88;9.05;;;13.50;84.60;;;;;;5076541;28;20073;-48
2021/06/23 02:47:03;;;;;;;16.35;10.18;;;13.60;84.70;;;;;;5094696;28;20039;-48
2021/06/23 02:49:29;;;;;;;16.88;8.85;;;13.60;83.90;;;;;;5076394;28;20024;-47
2021/06/23 02:51:57;;;;;;;18.67;9.82;;;13.60;83.70;;;;;;5094547;28;20523;-48
2021/06/23 02:54:25;;;;;;;17.10;10.73;;;13.60;83.90;;;;;;5094616;28;20051;-48
2021/06/23 02:56:51;;;;;;;16.33;9.68;;;13.50;84.00;;;;;;5094663;28;20032;-47
2021/06/23 02:59:19;;;;;;;13.60;8.65;;;13.60;83.90;;;;;;5094352;28;20043;-49
2021/06/23 03:01:45;;;;;;;19.92;9.93;;;13.50;83.90;;;;;;5094402;28;20095;-48
2021/06/23 03:04:11;;;;;;;18.45;10.05;;;13.50;84.10;;;;;;5094336;28;20099;-48
2021/06/23 03:06:37;;;;;;;16.50;9.63;;;13.50;83.80;;;;;;5094209;28;20463;-47
2021/06/23 03:09:03;;;;;;;19.33;9.70;;;13.50;84.10;;;;;;5094253;28;20038;-47
2021/06/23 03:11:47;;;;;;;20.10;10.38;;;13.50;84.00;;;;;;5094094;28;20429;-48
2021/06/23 03:14:13;;;;;;;17.65;9.63;;;13.50;84.20;;;;;;5094371;28;20102;-47
2021/06/23 03:16:38;;;;;;;15.00;10.00;;;13.50;83.90;;;;;;5094033;28;20063;-49
2021/06/23 03:19:05;;;;;;;18.98;9.52;;;13.60;83.60;;;;;;5094047;28;20051;-47
2021/06/23 03:21:31;;;;;;;25.27;10.38;;;13.50;83.50;;;;;;5093730;28;20020;-47
2021/06/23 03:23:57;;;;;;;14.93;10.40;;;13.50;83.50;;;;;;5093923;28;20024;-48
2021/06/23 03:26:28;;;;;;;19.30;9.38;;;13.50;83.80;;;;;;5093951;28;20024;-49
2021/06/23 03:28:54;;;;;;;17.95;9.95;;;13.50;83.70;;;;;;5093850;28;20046;-50
2021/06/23 03:31:20;;;;;;;21.48;10.63;;;13.50;83.50;;;;;;5093480;28;20044;-49
2021/06/23 03:33:46;;;;;;;18.35;10.35;;;13.50;83.50;;;;;;5094109;28;20043;-47
2021/06/23 03:36:11;;;;;;;24.45;12.02;;;13.60;83.50;;;;;;5075836;28;20056;-48
2021/06/23 03:38:37;;;;;;;19.48;10.18;;;13.60;83.30;;;;;;5075689;28;20475;-48
2021/06/23 03:41:03;;;;;;;17.08;9.75;;;13.70;83.10;;;;;;5094054;28;20062;-48
2021/06/23 03:43:29;;;;;;;15.35;9.30;;;13.70;83.00;;;;;;5093776;28;20361;-49
2021/06/23 03:45:54;;;;;;;23.75;10.45;;;13.60;83.10;;;;;;5093790;28;20476;-48
2021/06/23 03:48:20;;;;;;;16.60;9.20;;;13.60;83.20;;;;;;5092827;28;20379;-48
2021/06/23 03:50:48;;;;;;;17.42;9.90;;;13.60;83.30;;;;;;5093818;28;20039;-50
2021/06/23 03:53:14;;;;;;;15.68;9.75;;;13.60;83.10;;;;;;5075254;28;20024;-47
2021/06/23 03:55:40;;;;;;;18.02;7.95;;;13.50;83.10;;;;;;5093253;28;20024;-46
2021/06/23 03:58:07;;;;;;;15.68;10.02;;;13.60;83.00;;;;;;5093389;28;20421;-49
2021/06/23 04:00:32;;;;;;;16.58;8.60;;;13.60;83.10;;;;;;5093789;28;20104;-47
2021/06/23 04:02:58;;;;;;;14.77;9.55;;;13.60;83.10;;;;;;5094045;28;20111;-47
2021/06/23 04:05:24;;;;;;;20.35;9.05;;;13.60;83.10;;;;;;5093497;28;20051;-48
2021/06/23 04:07:50;;;;;;;17.40;8.55;;;13.50;83.10;;;;;;5093708;28;20526;-47
2021/06/23 04:10:17;;;;;;;17.75;8.73;;;13.60;82.80;;;;;;5093456;28;20099;-48
2021/06/23 04:12:43;;;;;;;21.35;8.75;;;13.70;82.50;;;;;;5093742;28;20028;-48
2021/06/23 04:15:12;;;;;;;21.05;9.60;;;13.60;82.40;;;;;;5075810;28;20055;-47
2021/06/23 04:17:38;;;;;;;21.05;8.50;;;13.60;82.50;;;;;;5093669;28;20032;-47
2021/06/23 04:20:06;;;;;;;13.75;8.20;;;13.70;82.50;;;;;;5093450;28;20031;-49
2021/06/23 04:22:32;;;;;;;15.43;8.70;;;13.70;82.60;;;;;;5093345;28;20012;-48
2021/06/23 04:24:58;;;;;;;20.58;9.18;;;13.70;82.50;;;;;;5093368;28;20098;-47
2021/06/23 04:27:24;;;;;;;18.92;9.40;;;13.60;82.70;;;;;;5093551;28;20106;-50
2021/06/23 04:29:50;;;;;;;22.08;9.07;;;13.60;82.50;;;;;;5093276;28;20556;-49
2021/06/23 04:32:16;;;;;;;21.42;9.13;;;13.70;82.80;;;;;;5092996;28;20043;-49
2021/06/23 04:34:41;;;;;;;20.85;7.93;;;13.80;82.00;;;;;;5093124;28;20074;-49
2021/06/23 04:37:07;;;;;;;15.43;8.05;;;13.80;82.30;;;;;;5075113;28;20023;-50
2021/06/23 04:39:33;;;;;;;21.70;9.85;;;13.80;82.40;;;;;;5093182;28;20031;-50
2021/06/23 04:41:59;;;;;;;11.15;7.85;;;13.70;82.40;;;;;;5093392;28;20024;-49
2021/06/23 04:44:24;;;;;;;20.95;8.50;;;13.70;82.50;;;;;;5093475;28;20052;-50
2021/06/23 04:46:50;;;;;;;15.75;8.23;;;13.80;82.00;;;;;;5075370;28;20036;-47
2021/06/23 04:49:16;;;;;;;16.63;8.43;;;13.70;81.90;;;;;;5093067;28;20528;-47
2021/06/23 04:51:42;;;;;;;13.65;8.43;;;13.70;82.50;;;;;;5093229;28;20039;-47
2021/06/23 04:54:07;;;;;;;15.65;8.50;;;13.80;82.00;;;;;;5092848;28;20039;-50
2021/06/23 04:56:33;;;;;;;20.58;8.23;;;13.90;82.00;;;;;;5092995;28;20027;-48
2021/06/23 04:58:59;;;;;;;15.75;7.93;;;14.00;81.40;;;;;;5094090;28;20016;-47
2021/06/23 05:01:25;;;;;;;18.27;8.18;;;13.90;81.50;;;;;;5096562;28;20169;-49
2021/06/23 05:03:51;;;;;;;13.45;8.32;;;14.00;81.30;;;;;;5096585;28;20028;-49
2021/06/23 05:06:17;;;;;;;17.20;7.55;;;14.10;81.20;;;;;;5096544;28;20027;-50
2021/06/23 05:08:42;;;;;;;11.90;7.93;;;14.10;81.10;;;;;;5097403;28;20367;-47
2021/06/23 05:11:08;;;;;;;14.43;8.07;;;14.00;81.70;;;;;;5096568;28;20024;-49
2021/06/23 05:13:36;;;;;;;21.27;7.45;;;14.20;80.90;;;;;;5096851;28;20028;-47
2021/06/23 05:16:03;;;;;;;14.43;7.80;;;14.20;80.90;;;;;;5097156;28;20020;-51
2021/06/23 05:18:29;;;;;;;12.82;7.32;;;14.40;80.40;;;;;;5078530;28;20416;-48
2021/06/23 05:20:58;;;;;;;11.75;7.18;;;14.50;80.10;;;;;;5096434;28;20073;-51
2021/06/23 05:23:25;;;;;;;24.80;7.35;;;14.50;80.20;;;;;;5096495;28;20051;-49
2021/06/23 05:25:50;;;;;;;16.75;8.23;;;14.70;79.10;;;;;;5095838;28;20035;-47
2021/06/23 05:28:16;;;;;;;19.95;7.80;;;14.50;79.60;;;;;;5095859;28;20016;-47
2021/06/23 05:30:41;;;;;;;11.77;6.47;;;14.50;79.60;;;;;;5096375;28;20035;-48
2021/06/23 05:33:07;;;;;;;17.83;6.70;;;14.60;79.70;;;;;;5096644;28;20093;-49
2021/06/23 05:35:33;;;;;;;19.92;7.68;;;14.90;78.10;;;;;;5096994;28;20073;-50
2021/06/23 05:37:58;;;;;;;16.27;6.50;;;14.50;78.50;;;;;;5077659;28;20024;-47
2021/06/23 05:40:24;;;;;;;15.82;7.35;;;14.40;79.00;;;;;;5077495;28;20016;-48
2021/06/23 05:42:50;;;;;;;20.40;9.13;;;14.40;79.20;;;;;;5095987;28;20047;-49
2021/06/23 05:45:16;;;;;;;15.90;7.57;;;14.40;78.90;;;;;;5095974;28;20028;-48
2021/06/23 05:47:41;;;;;;;36.47;14.40;;;14.70;78.80;;;;;;5095696;28;20032;-52
2021/06/23 05:50:08;;;;;;;17.45;6.35;;;14.80;78.30;;;;;;5095628;28;20024;-49
2021/06/23 05:52:33;;;;;;;8.55;6.18;;;15.00;76.90;;;;;;5095950;28;20099;-48
2021/06/23 05:54:59;;;;;;;18.20;7.40;;;15.10;77.10;;;;;;5095733;28;20111;-49
2021/06/23 05:57:25;;;;;;;11.80;5.78;;;15.20;76.30;;;;;;5095606;28;20055;-48
2021/06/23 05:59:50;;;;;;;12.95;6.30;;;15.20;76.80;;;;;;5095561;28;20052;-48
2021/06/23 06:02:16;;;;;;;17.95;6.05;;;15.30;76.40;;;;;;5095791;28;20020;-48
2021/06/23 06:04:41;;;;;;;19.75;7.68;;;15.20;76.00;;;;;;5095351;28;20031;-50
2021/06/23 06:07:07;;;;;;;24.95;9.73;;;15.30;75.80;;;;;;5095755;28;20348;-48
2021/06/23 06:09:33;;;;;;;14.93;5.80;;;15.30;76.00;;;;;;5095257;28;20051;-50
2021/06/23 06:11:58;;;;;;;15.20;6.47;;;15.30;76.00;;;;;;5094449;28;20028;-47
2021/06/23 06:14:24;;;;;;;15.15;6.05;;;15.40;75.70;;;;;;5095135;28;20035;-53
2021/06/23 06:16:50;;;;;;;13.75;6.38;;;15.30;75.90;;;;;;5095099;28;20023;-47
2021/06/23 06:19:15;;;;;;;12.73;6.45;;;15.40;75.40;;;;;;5095385;28;20093;-48
2021/06/23 06:21:41;;;;;;;17.92;7.55;;;15.40;75.30;;;;;;5095086;28;20028;-48
2021/06/23 06:24:07;;;;;;;15.80;6.60;;;15.40;75.70;;;;;;5094917;28;20402;-48
2021/06/23 06:26:33;;;;;;;10.18;5.80;;;15.50;74.90;;;;;;5094886;28;20115;-48
2021/06/23 06:28:58;;;;;;;10.40;6.20;;;15.50;74.60;;;;;;5095220;28;20028;-51
2021/06/23 06:31:25;;;;;;;14.85;6.43;;;15.40;75.00;;;;;;5076210;28;20027;-48
2021/06/23 06:33:51;;;;;;;13.43;6.65;;;15.40;75.10;;;;;;5094932;28;20487;-50
2021/06/23 06:36:18;;;;;;;20.02;5.82;;;15.40;74.90;;;;;;5094927;28;20023;-48
2021/06/23 06:38:43;;;;;;;20.80;7.88;;;15.60;74.60;;;;;;5094839;28;20425;-50
2021/06/23 06:41:09;;;;;;;13.10;5.90;;;15.50;73.90;;;;;;5094747;28;20021;-48
2021/06/23 06:43:35;;;;;;;14.50;6.32;;;15.30;74.30;;;;;;5094772;28;20028;-47
2021/06/23 06:46:01;;;;;;;16.65;6.07;;;15.40;74.40;;;;;;5094673;28;20047;-48
2021/06/23 06:48:27;;;;;;;14.23;5.72;;;15.60;73.70;;;;;;5094846;28;20036;-47
2021/06/23 06:50:53;;;;;;;13.52;5.70;;;15.70;73.30;;;;;;5094373;28;20033;-48
2021/06/23 06:53:19;;;;;;;14.70;5.95;;;15.80;73.10;;;;;;5094589;28;20059;-49
2021/06/23 06:55:45;;;;;;;13.60;5.70;;;16.10;73.50;;;;;;5094498;28;20117;-49
2021/06/23 06:58:11;;;;;;;14.00;6.07;;;16.30;72.20;;;;;;5094473;28;20024;-47
2021/06/23 07:00:40;;;;;;;12.00;5.60;;;16.10;72.20;;;;;;5094440;28;20046;-51
2021/06/23 07:03:06;;;;;;;18.95;6.40;;;16.00;72.60;;;;;;5094588;28;20024;-53
2021/06/23 07:05:32;;;;;;;19.73;6.18;;;16.20;71.60;;;;;;5076237;28;20020;-51
2021/06/23 07:07:57;;;;;;;13.52;6.47;;;16.20;71.70;;;;;;5094649;28;20456;-50
2021/06/23 07:10:24;;;;;;;11.55;5.72;;;16.20;72.00;;;;;;5075985;28;20467;-51
2021/06/23 07:12:49;;;;;;;10.82;5.93;;;16.10;73.00;;;;;;5094310;28;20024;-51
2021/06/23 07:15:16;;;;;;;15.57;6.47;;;16.40;71.60;;;;;;5094487;28;20035;-47
2021/06/23 07:17:43;;;;;;;15.95;5.97;;;16.30;71.60;;;;;;5075783;28;20020;-49
2021/06/23 07:20:09;;;;;;;14.10;5.97;;;16.10;71.90;;;;;;5094395;28;20021;-49
2021/06/23 07:22:35;;;;;;;9.57;4.50;;;16.20;71.50;;;;;;5075799;28;20024;-52
2021/06/23 07:25:01;;;;;;;12.35;5.05;;;16.40;71.40;;;;;;5075430;28;20411;-51
2021/06/23 07:27:27;;;;;;;12.30;5.63;;;16.70;70.70;;;;;;5093342;28;20031;-48
2021/06/23 07:29:53;;;;;;;16.13;4.88;;;16.80;68.40;;;;;;5092616;28;20150;-49
2021/06/23 07:32:35;;;;;;;17.08;5.20;;;16.80;69.80;;;;;;5092670;28;20076;-51
2021/06/23 07:37:48;;;;;;;8.95;4.28;;;16.20;69.70;;;;;;5094682;28;20164;-48
2021/06/23 07:40:15;;;;;;;14.15;5.60;;;16.40;70.10;;;;;;5059378;28;20028;-48
2021/06/23 07:42:41;;;;;;;8.95;4.55;;;16.70;69.70;;;;;;5076359;28;20024;-48
2021/06/23 07:45:08;;;;;;;10.82;5.72;;;16.60;69.10;;;;;;5093717;28;20043;-52
2021/06/23 07:47:38;;;;;;;13.68;4.82;;;16.40;69.30;;;;;;5093705;28;20024;-48
2021/06/23 07:50:06;;;;;;;13.00;5.63;;;16.70;68.50;;;;;;5075119;28;20027;-52
2021/06/23 07:52:43;;;;;;;7.90;3.97;;;17.00;67.60;;;;;;5093282;28;20028;-50
2021/06/23 07:55:56;;;;;;;10.00;4.47;;;17.60;66.60;;;;;;5093233;28;20101;-49
2021/06/23 08:09:01;;;;;;;17.52;5.28;;;17.90;62.90;;;;;;5093143;28;20035;-48
2021/06/23 08:11:32;;;;;;;14.13;4.88;;;18.20;62.30;;;;;;5093967;28;20452;-47
2021/06/23 08:13:58;;;;;;;10.35;3.33;;;18.30;62.90;;;;;;5092880;28;20035;-48
2021/06/23 08:16:24;;;;;;;13.48;4.85;;;18.60;62.00;;;;;;5093805;28;20016;-48
2021/06/23 08:18:50;;;;;;;14.27;4.78;;;18.40;61.50;;;;;;5094663;28;20020;-48
2021/06/23 08:21:15;;;;;;;8.82;4.18;;;17.90;63.70;;;;;;5092830;28;20024;-56
2021/06/23 08:23:41;;;;;;;8.20;4.60;;;18.00;63.70;;;;;;5092791;28;20024;-48
2021/06/23 08:26:07;;;;;;;16.95;5.72;;;17.60;64.30;;;;;;5093183;28;20386;-48
2021/06/23 08:28:32;;;;;;;14.23;5.22;;;17.80;64.30;;;;;;5092908;28;20076;-48
2021/06/23 08:30:58;;;;;;;11.05;5.70;;;17.80;63.80;;;;;;5092949;28;20536;-47
2021/06/23 08:33:27;;;;;;;16.88;5.80;;;17.50;64.70;;;;;;5093103;28;20368;-48
2021/06/23 08:35:54;;;;;;;16.45;5.20;;;17.60;64.50;;;;;;5097468;28;20047;-48
2021/06/23 08:38:21;;;;;;;16.48;5.70;;;17.80;64.20;;;;;;5079050;28;20027;-48
2021/06/23 08:40:47;;;;;;;14.63;5.45;;;17.80;62.80;;;;;;5097235;28;20024;-49
2021/06/23 08:43:15;;;;;;;17.15;5.75;;;18.30;62.10;;;;;;5079993;28;20100;-47
2021/06/23 08:45:41;;;;;;;11.43;5.63;;;18.70;59.40;;;;;;5097372;28;20099;-47
2021/06/23 08:48:07;;;;;;;11.65;4.85;;;19.60;56.90;;;;;;5096301;28;20483;-46
2021/06/23 08:50:34;;;;;;;18.02;5.90;;;19.70;56.50;;;;;;5078402;28;20494;-46
2021/06/23 08:52:59;;;;;;;10.55;4.55;;;19.50;57.30;;;;;;5096502;28;20077;-48
2021/06/23 08:55:25;;;;;;;14.30;5.07;;;18.90;57.30;;;;;;5096439;28;20024;-47
2021/06/23 08:57:52;;;;;;;12.05;5.72;;;18.60;59.40;;;;;;5078723;28;20020;-51
2021/06/23 09:00:20;;;;;;;18.25;5.60;;;18.60;60.10;;;;;;5096614;28;20417;-50
2021/06/23 09:02:47;;;;;;;6.90;4.47;;;18.90;58.90;;;;;;5096217;28;20023;-47
2021/06/23 09:05:15;;;;;;;15.35;5.55;;;18.50;59.20;;;;;;5096038;28;20024;-49
2021/06/23 09:07:56;;;;;;;14.73;5.15;;;18.40;60.30;;;;;;5096272;28;20028;-47
2021/06/23 09:10:27;;;;;;;12.63;5.05;;;18.50;60.70;;;;;;5078652;28;20031;-48
2021/06/23 09:13:11;;;;;;;14.45;6.93;;;18.50;60.30;;;;;;5077993;28;20387;-47
2021/06/23 09:15:53;;;;;;;12.63;5.85;;;18.50;60.50;;;;;;5095404;28;20032;-48
2021/06/23 09:18:22;;;;;;;7.85;5.00;;;18.40;60.40;;;;;;5096014;28;20098;-49
2021/06/23 09:20:52;;;;;;;17.67;5.20;;;18.70;60.50;;;;;;5096354;28;20026;-47
2021/06/23 09:23:34;;;;;;;9.43;4.82;;;19.00;59.10;;;;;;5096181;28;20028;-54
2021/06/23 09:26:26;;;;;;;11.10;4.32;;;19.20;58.70;;;;;;5096269;28;20036;-48
2021/06/23 09:29:13;;;;;;;17.80;5.10;;;18.70;60.60;;;;;;5095743;28;20384;-49
2021/06/23 09:31:54;;;;;;;16.63;6.60;;;18.80;59.80;;;;;;5077016;28;20118;-48
2021/06/23 09:34:39;;;;;;;9.70;5.13;;;18.80;60.40;;;;;;5095824;28;20380;-47
2021/06/23 09:37:32;;;;;;;8.85;5.38;;;18.80;59.10;;;;;;5077443;28;20428;-52
2021/06/23 09:40:09;;;;;;;11.38;4.90;;;18.90;59.20;;;;;;5095563;28;20016;-49
2021/06/23 09:42:49;;;;;;;14.23;5.93;;;19.30;57.30;;;;;;5095902;28;20029;-51
2021/06/23 09:45:17;;;;;;;14.82;5.10;;;18.70;59.10;;;;;;5094748;28;20114;-48
2021/06/23 09:47:48;;;;;;;15.63;4.88;;;18.50;60.00;;;;;;5095527;28;20102;-50
2021/06/23 09:50:26;;;;;;;14.32;7.25;;;18.80;59.70;;;;;;5077790;28;20105;-50
2021/06/23 09:53:02;;;;;;;12.70;5.65;;;18.80;59.50;;;;;;5095760;28;20032;-51
2021/06/23 09:55:39;;;;;;;10.95;4.03;;;19.10;59.20;;;;;;5077088;28;20024;-49
2021/06/23 09:58:20;;;;;;;11.68;5.32;;;19.20;58.80;;;;;;5095425;28;20016;-49
2021/06/23 10:00:57;;;;;;;13.82;6.03;;;19.30;58.30;;;;;;5095352;28;20088;-48
2021/06/23 10:03:23;;;;;;;7.75;5.10;;;18.90;59.90;;;;;;5095346;28;20056;-48
2021/06/23 10:05:49;;;;;;;8.32;4.15;;;19.10;59.60;;;;;;5094950;28;20023;-46
2021/06/23 10:08:25;;;;;;;11.55;5.47;;;19.10;58.90;;;;;;5095146;28;20441;-47
2021/06/23 10:10:51;;;;;;;13.98;5.28;;;18.80;59.00;;;;;;5095235;28;20430;-46
2021/06/23 10:13:18;;;;;;;16.17;6.70;;;19.00;59.20;;;;;;5076686;28;20035;-48
2021/06/23 10:15:46;;;;;;;5.80;4.40;;;18.90;59.00;;;;;;5095237;28;20063;-48
2021/06/23 10:18:13;;;;;;;14.50;5.70;;;19.00;58.50;;;;;;5095904;28;20340;-49
2021/06/23 10:20:38;;;;;;;9.93;4.72;;;19.30;57.10;;;;;;5094903;28;20428;-50
2021/06/23 10:23:04;;;;;;;10.50;4.78;;;19.50;57.50;;;;;;5094995;28;20055;-47
2021/06/23 10:25:31;;;;;;;9.40;5.53;;;19.70;56.90;;;;;;5076650;28;20360;-47
2021/06/23 10:27:58;;;;;;;13.95;4.53;;;19.70;56.60;;;;;;5094750;28;20021;-47
2021/06/23 10:30:29;;;;;;;10.88;4.20;;;19.80;56.60;;;;;;5094728;28;20031;-51
2021/06/23 10:32:56;;;;;;;12.57;4.57;;;19.50;57.40;;;;;;5094248;28;20036;-49
2021/06/23 10:35:22;;;;;;;11.35;4.35;;;19.30;57.70;;;;;;5094637;28;20123;-47
2021/06/23 10:37:50;;;;;;;13.32;4.82;;;19.50;57.80;;;;;;5094590;28;20048;-47
2021/06/23 10:40:18;;;;;;;8.70;5.00;;;19.90;56.00;;;;;;5094386;28;20092;-49
2021/06/23 10:42:45;;;;;;;14.60;4.85;;;20.10;55.30;;;;;;5094577;28;20023;-47
2021/06/23 10:45:13;;;;;;;9.95;4.22;;;19.70;55.60;;;;;;5094107;28;20506;-47
2021/06/23 10:47:42;;;;;;;14.75;5.20;;;19.90;55.70;;;;;;5076720;28;20031;-59
2021/06/23 10:50:10;;;;;;;9.75;5.05;;;20.00;55.60;;;;;;5095323;28;20024;-46
2021/06/23 10:52:41;;;;;;;9.85;4.30;;;19.80;56.20;;;;;;5094092;28;20031;-46
2021/06/23 10:55:26;;;;;;;9.52;4.63;;;19.70;57.00;;;;;;5094190;28;20118;-47
2021/06/23 10:58:02;;;;;;;15.13;4.68;;;19.50;56.50;;;;;;5093440;28;20025;-47
2021/06/23 11:00:31;;;;;;;8.80;4.72;;;20.00;55.10;;;;;;5094125;28;20016;-47
2021/06/23 11:03:03;;;;;;;14.35;6.15;;;19.80;55.20;;;;;;5094037;28;20016;-48
2021/06/23 11:05:49;;;;;;;10.52;4.65;;;19.50;55.80;;;;;;5094596;28;20529;-48
2021/06/23 11:08:22;;;;;;;8.88;4.00;;;19.50;56.90;;;;;;5093834;28;20023;-48
2021/06/23 11:10:48;;;;;;;8.63;5.75;;;19.70;56.10;;;;;;5094228;28;20024;-48
2021/06/23 11:13:32;;;;;;;6.50;4.22;;;19.50;55.90;;;;;;5094267;28;20080;-54
2021/06/23 11:15:58;;;;;;;10.63;5.32;;;19.70;56.30;;;;;;5093590;28;20394;-50
2021/06/23 11:18:25;;;;;;;11.50;5.13;;;19.70;56.00;;;;;;5094002;28;20027;-48
2021/06/23 11:20:52;;;;;;;10.30;5.32;;;19.80;55.00;;;;;;5075881;28;20107;-48
2021/06/23 11:23:58;;;;;;;12.63;5.13;;;19.80;55.60;;;;;;5076497;28;20113;-49
2021/06/23 11:26:25;;;;;;;14.15;4.80;;;20.10;55.80;;;;;;5076066;28;20059;-49
2021/06/23 11:28:52;;;;;;;13.18;5.15;;;20.20;55.60;;;;;;5075450;28;20049;-49
2021/06/23 11:31:20;;;;;;;6.72;4.65;;;20.30;54.60;;;;;;5094032;28;20076;-47
2021/06/23 11:33:49;;;;;;;10.95;4.72;;;20.30;55.00;;;;;;5094476;28;20028;-50
2021/06/23 11:36:19;;;;;;;9.75;5.10;;;20.40;54.40;;;;;;5095112;28;20471;-49
2021/06/23 11:38:47;;;;;;;12.45;5.18;;;20.30;55.00;;;;;;5072037;28;20056;-48
2021/06/23 11:41:15;;;;;;;10.27;5.45;;;19.80;56.70;;;;;;5073087;28;20025;-49
2021/06/23 11:43:41;;;;;;;6.32;4.20;;;19.80;56.40;;;;;;5072332;28;20032;-47
2021/06/23 11:46:07;;;;;;;20.77;6.18;;;19.80;56.80;;;;;;5072564;28;20020;-50
2021/06/23 11:48:35;;;;;;;10.45;4.88;;;19.90;55.90;;;;;;5071746;28;20043;-51
2021/06/23 11:51:01;;;;;;;10.23;4.95;;;20.00;56.00;;;;;;5073007;28;20063;-49
2021/06/23 11:53:27;;;;;;;12.90;4.80;;;19.50;57.50;;;;;;5073141;28;20048;-49
2021/06/23 11:55:53;;;;;;;6.95;5.13;;;19.70;57.30;;;;;;5072880;28;20031;-48
2021/06/23 11:58:19;;;;;;;14.05;6.07;;;19.70;57.70;;;;;;5073322;28;20137;-50
2021/06/23 12:00:45;;;;;;;13.70;5.80;;;19.60;57.90;;;;;;5072590;28;20085;-47
2021/06/23 12:03:17;;;;;;;11.93;6.13;;;19.50;58.20;;;;;;5072939;28;20123;-48
2021/06/23 12:05:44;;;;;;;12.10;6.10;;;19.70;57.50;;;;;;5072968;28;20021;-46
2021/06/23 12:08:10;;;;;;;14.38;5.50;;;19.70;57.40;;;;;;5072640;28;20044;-49
2021/06/23 12:10:38;;;;;;;12.23;6.35;;;19.50;58.00;;;;;;5072723;28;20047;-54
2021/06/23 12:13:04;;;;;;;17.55;6.88;;;19.60;58.30;;;;;;5072320;28;20027;-48
2021/06/23 12:15:31;;;;;;;12.63;7.43;;;19.50;59.10;;;;;;5072917;28;20068;-48
2021/06/23 12:18:00;;;;;;;17.85;6.05;;;19.50;59.30;;;;;;5073360;28;20052;-47
2021/06/23 12:20:31;;;;;;;12.25;5.95;;;19.70;58.20;;;;;;5072806;28;20472;-48
2021/06/23 12:22:59;;;;;;;13.10;6.85;;;19.80;58.20;;;;;;5071389;28;20385;-48
2021/06/23 12:25:41;;;;;;;16.48;7.28;;;20.00;56.90;;;;;;5071282;28;20037;-47
2021/06/23 12:28:11;;;;;;;15.70;7.55;;;19.90;57.90;;;;;;5072832;28;20557;-48
2021/06/23 12:30:38;;;;;;;17.58;8.60;;;19.90;58.10;;;;;;5071301;28;20036;-49
2021/06/23 12:33:07;;;;;;;21.88;6.93;;;20.20;57.40;;;;;;5055071;28;20129;-49
2021/06/23 12:35:33;;;;;;;12.70;6.47;;;20.30;57.00;;;;;;5052153;28;20029;-48
2021/06/23 12:37:59;;;;;;;11.18;6.90;;;20.50;57.20;;;;;;5052868;28;20078;-49
2021/06/23 12:40:26;;;;;;;15.85;8.43;;;20.90;54.90;;;;;;5054652;28;20025;-47
2021/06/23 12:42:53;;;;;;;18.55;9.52;;;20.50;55.80;;;;;;5052868;28;20358;-50
2021/06/23 12:45:21;;;;;;;11.82;7.13;;;20.40;55.60;;;;;;5064134;28;20029;-36
2021/06/23 12:47:47;;;;;;;11.95;6.95;;;20.80;54.70;;;;;;5051355;28;20182;-37
2021/06/23 12:50:17;;;;;;;15.52;6.88;;;21.30;54.80;;;;;;5051165;28;20068;-38
2021/06/23 12:52:44;;;;;;;12.82;7.07;;;21.40;53.30;;;;;;5052554;28;20104;-37
2021/06/23 12:55:10;;;;;;;12.93;7.38;;;21.30;54.30;;;;;;5051014;28;20099;-37